Challenge de la Province du Hainaut

Le Grand Prix Pascal Duvivier - Morlanwelz (15.20 km)

lundi 11 novembre 2019

Vous pouvez trouver Le classement original sur : http://www.challengehainaut.be/
CHALLENGE DE LA PROVINCE DU HAINAUT
LE GRAND PRIX PASCAL DUVIVIER - MORLANWELZ
DISTANCE 15.20 km
lundi 11 novembre 2019
 
Place dos NOM Equipe Catégorie Pl/cat temps temps/km Vitesse
01:00:00                
1 795 CUSSE KEVIN QUEVY RUN SE 1 0:56:18 03:42 16.20
2 3256 MOLLA DEMEKE - V1 1 0:57:37 03:47 15.83
3 3416 VANSCHEPDAEL SEBASTIEN - SE 2 0:59:13 03:54 15.40
4 3228 LECOLLEY FRANCOIS - V1 2 1:00:25 03:58 15.10
5 845 DE GROOTE DORIAN JC ESTINNES/ACLO EH 1 1:00:45 04:00 15.01
6 282 MATON ISMAEL - SE 3 1:01:00 04:01 14.95
7 3238 DE VOOGHT YVES FLEURUS SE 4 1:01:22 04:02 14.86
8 3414 VANTOMME AURELIEN TOTAL SE 5 1:01:33 04:03 14.82
9 3401 ROSITANO YOHAN IN V1 3 1:01:58 04:05 14.72
10 3244 PISTONE ANTHONY ACLO SE 6 1:02:50 04:08 14.52
11 2210 D'ONOFRIO DAVIDE - V1 4 1:02:50 04:08 14.52
12 87 BIETTLOT BENJAMIN - SE 7 1:03:15 04:10 14.42
13 149 HADJ PAUL JT BESONRIEUX V2 1 1:03:36 04:11 14.34
14 523 FITDEVOIE PIERRE OUMONT V2 2 1:04:10 04:13 14.21
15 126 DRUGMAND FABIAN G.GOBERT RUNNING TEA MV1 1 1:04:17 04:14 14.19
16 3267 CULOT JEAN-MARC - V2 3 1:05:26 04:18 13.94
17 3409 PHILIPPON PIERRE ELIGOR V1 5 1:06:05 04:21 13.80
18 3261 PAULUS DAVID - V1 6 1:06:23 04:22 13.74
19 694 GERIN JASON HTT SE 8 1:06:28 04:22 13.72
20 3259 EMPAIN FRANCOIS EL BINDE À MICKEY SE 9 1:06:38 04:23 13.69
21 3410 JANSSENS YVAN TEAM VERTIGO EH 2 1:06:45 04:23 13.66
22 220 DEN HOUDIJKER DAVID OEH SE 10 1:07:39 04:27 13.48
23 3292 VAN HECKE STEPHANE - V1 7 1:07:47 04:28 13.46
24 748 VANHOEGAERDEN THIERRY RUNNING'GREZ SE 11 1:08:06 04:29 13.39
25 3297 AGORASTOS ALEXANDRE ATCC SE 12 1:08:19 04:30 13.35
26 3291 HAENECOUR PIERRE TRIGT SE 13 1:08:55 04:32 13.23
27 772 VANESCOTE INGRID JCHSH / O2 MAX A2 1 1:09:04 04:33 13.21
28 3264 CADO PAUL XYD FLEURUS V2 4 1:09:05 04:33 13.20
29 3236 POLOME GUY - V2 5 1:09:16 04:33 13.17
30 102 GRANIE JEAN-MARC EL BINDE À MICKEY V2 6 1:09:28 04:34 13.13
31 3243 BRUYNEEL ARNAUD - SE 14 1:09:47 04:35 13.07
32 3408 BRICE JEAN-MARIE LES 15 PIEDS V3 1 1:09:50 04:36 13.06
33 3233 DOFNY MICHAEL NAC SE 15 1:10:07 04:37 13.01
34 10 THIRION PHILIPPE FRT BINCHE V3 2 1:10:17 04:37 12.98
35 3407 INNOCENTE GINO FRT BINCHE V2 7 1:10:18 04:37 12.97
36 3265 WARGNIES HUGO RUNFORFUNCHAPELLE EH 3 1:10:42 04:39 12.90
37 221 YUMUSAK HASAN RSCM V1 8 1:10:43 04:39 12.90
38 435 BERREWAERTS ETIENNE USBW V4 1 1:10:52 04:40 12.87
39 114 BELKACEM RACHEID LES BOULETTES V1 9 1:10:57 04:40 12.85
40 701 BALDARELLI FABIO CIAO ITALIA V1 10 1:11:09 04:41 12.82
41 3213 GENTELET PASCAL JCPMF SENEFFE V2 8 1:11:43 04:43 12.72
42 470 BELLANTE SALVATORE - V1 11 1:11:47 04:43 12.71
43 36 HAMAIDE JEREMY - SE 16 1:11:56 04:44 12.68
44 3224 MENU GERALD JET V1 12 1:12:19 04:45 12.61
45 868 HORLAIT JEAN-LUC FRT V2 9 1:12:34 04:46 12.57
46 3418 LHOTELLERIE FLORENT BR009 SE 17 1:12:57 04:48 12.50
47 3412 FOURDIN VINCENT KERVASSIN SE 18 1:13:07 04:49 12.47
48 3405 DUMONT CARYL - V1 13 1:13:28 04:50 12.41
49 447 PIRET PAUL F.C.CASTEAU V4 2 1:13:32 04:50 12.40
50 730 VANDRIESSCHE CAROLINE JCHSH A1 1 1:13:48 04:51 12.36
51 3427 GHYSELS NATHAN - EH 4 1:13:49 04:51 12.36
52 702 D'ADDABO ORONZO CIAO ITALIA V3 3 1:13:54 04:52 12.34
53 3287 GUYOT CORENTIN BC MONS SE 19 1:13:56 04:52 12.34
54 3272 VANIEKAUT BENOIT INF SE 20 1:14:12 04:53 12.29
55 68 BAILLY JEAN-PHILIPPE VITALITÉ BINCHE V2 10 1:14:12 04:53 12.29
56 3245 ROMBAUT JEAN-FRANCOIS - V1 14 1:14:20 04:53 12.27
57 675 BODDEN MICHAEL LES TROTTINEURS DE S V1 15 1:14:29 04:54 12.25
58 3278 ARNOULD ANTON STT SE 21 1:14:34 04:54 12.23
59 405 SERAFIN LORENZO FRT BINCHE V1 16 1:14:36 04:54 12.23
60 311 KINDERMANS JEAN-PIERRE NAC V2 11 1:14:40 04:55 12.22
61 781 CATINAT YOURI - SE 22 1:14:41 04:55 12.21
62 3295 SCIEUR LAURA ATCC DA 1 1:14:58 04:56 12.17
63 159 KWEMBEKE JEAN-CHRISTOPHE ACLO V2 12 1:15:17 04:57 12.12
64 3281 REY PHILIPPE - V2 13 1:15:21 04:57 12.10
65 3286 KIN LAURENCE - A2 2 1:15:26 04:58 12.09
66 490 CUSCHERA PINO EL BINDE À MICKEY/BJ V1 17 1:15:49 04:59 12.03
67 3241 BURY MARGAUX - DA 2 1:16:06 05:00 11.99
68 717 IANNI SAVERIO ACLO V2 14 1:16:07 05:00 11.98
69 3246 GHISU JONATHAN RHODIENS SE 23 1:16:21 05:01 11.95
70 767 DALEBROUX VINCENT - V2 15 1:16:39 05:03 11.90
71 131 VANDERCAM FABIAN JC THIMEON V1 18 1:16:57 05:04 11.85
72 3258 PIERSON JONATHAN JCPMF SENEFFE SE 24 1:17:26 05:06 11.78
73 3288 VAN LUYCK SONIA ACLO A1 2 1:17:28 05:06 11.77
74 3270 WANTY CATHERINE FRT A2 3 1:17:30 05:06 11.77
75 317 BARBIER YVES USBW/BARLIN V2 16 1:17:43 05:07 11.74
76 766 VRAY VALERIE FRT A2 4 1:18:03 05:08 11.69
77 367 BAKRIM FATIMA ACLO A2 5 1:18:42 05:11 11.59
78 2497 GILLOT KARL ACLO V1 19 1:18:43 05:11 11.59
79 113 CHAUVAUX ANNE CIAO ITALIA A1 3 1:18:59 05:12 11.55
80 451 WILLOCQ PHILIPPE G. GOBERT RUNING TEA V2 17 1:19:33 05:14 11.47
81 639 BRUN FABIAN NAC V1 20 1:19:35 05:14 11.46
82 768 CASSANO RENATO TROTTIGNEUR DE SOIGN V2 18 1:19:35 05:14 11.46
83 660 PLETINCKX SYLVIE JET A1 4 1:19:37 05:14 11.46
84 407 MARTORANA ANTONIO AMIS FB V2 19 1:19:39 05:14 11.45
85 328 QUINIET HELENE - DA 3 1:19:39 05:14 11.45
86 3426 GHYSELS FRED - V1 21 1:19:43 05:15 11.44
87 3430 GOFFIN PIERRE - SE 25 1:19:58 05:16 11.41
88 3254 GEERTS JENNIFERE CANISPORT DA 4 1:20:04 05:16 11.39
89 3239 DE LAZZER GIAN - V2 20 1:20:10 05:16 11.38
90 770 DEKNOP BENOIT CPMV NALINNES V1 22 1:20:12 05:17 11.37
91 3226 DEWANDEL LAURENT ZONARDS V2 21 1:20:12 05:17 11.37
92 3230 INCONGNITO FRANCESCO - V1 23 1:20:14 05:17 11.37
93 531 CHIUSANO MARIA TERESA ESM/JCPMF A2 6 1:20:19 05:17 11.36
94 3433 WARROT LAURENT - V1 24 1:20:27 05:18 11.34
95 58 MAES CHRISTIAN LES ZONARDS V3 4 1:20:30 05:18 11.33
96 612 TRICOT YVES JCPMF FONTAINE V1 25 1:20:31 05:18 11.33
97 47 MESTRE FREDERIC ESM V1 26 1:20:31 05:18 11.33
98 3431 BURY STEPHANE - SE 26 1:20:45 05:19 11.29
99 3432 BURY AUDREY - A1 5 1:20:45 05:19 11.29
100 214 DE VREESE MARC JC ESTINNES V3 5 1:20:53 05:19 11.28
101 353 SBRO SALVATOR ESM V4 3 1:21:09 05:20 11.24
102 547 MINNE ETIENNE VERTIGO V2 22 1:21:36 05:22 11.18
103 631 YUMUSAK ALEXANDRE - SE 27 1:21:39 05:22 11.17
104 3280 GERBOUX OLIVIER IN V1 27 1:21:44 05:23 11.16
105 3420 CAUDRON OLIVIER - SE 28 1:21:46 05:23 11.15
106 507 LANCKRIET ALEX ESM V2 23 1:21:57 05:23 11.13
107 771 ANGELY GAETAN USBW V5 1 1:22:10 05:24 11.10
108 3216 SIPURA JULIE JCPMF SENEFFE DA 5 1:22:18 05:25 11.08
109 3215 SIPURA MICO JCPMF SENEFFE V2 24 1:22:18 05:25 11.08
110 183 PRAIL CHRISTIAN LES ZONARDS V4 4 1:22:20 05:25 11.08
111 3220 JANS CAROLINE - DA 6 1:22:28 05:26 11.06
112 453 DE WULF LUC ESM V3 6 1:22:31 05:26 11.05
113 420 SPITALERI MARIO CIAO ITALIA V3 7 1:23:08 05:28 10.97
114 289 DE VREESE SEBASTIEN JC ESTINNES V1 28 1:23:13 05:28 10.96
115 198 EYLENBOSCH GASTON BVL V4 5 1:23:24 05:29 10.94
116 570 DESHAYES SEVERINE JC THIMEON A1 6 1:23:26 05:29 10.93
117 3429 BONSIGNORE VINCENZO WALIBI V3 8 1:23:33 05:30 10.92
118 3235 CASSANO ROSARIO TROTTIGNEUR DE SOIGN SE 29 1:23:49 05:31 10.88
119 3268 ZINGARELLO GIANNI TOTAL V2 25 1:23:52 05:31 10.88
120 3255 PETIT THIERRY FRT V2 26 1:23:56 05:31 10.87
121 716 COLLARD DELPHINE ACLO DA 7 1:24:12 05:32 10.83
122 377 NEMETH ALAIN LES TROTTINEURS DE S V3 9 1:24:12 05:32 10.83
123 494 HOUDART PIERRE ACLO V1 29 1:24:14 05:32 10.83
124 3423 PIETTE ANTOINE - SE 30 1:24:50 05:35 10.75
125 3223 DELCORDE BERNARD HAC V2 27 1:24:51 05:35 10.75
126 3406 LEGRAND SARAH FRT BINCHE A2 7 1:24:52 05:35 10.75
127 3249 MAHIA BERANGERE TROTTIGNEUR DE SOIGN A1 7 1:25:13 05:36 10.70
128 3222 DELEU PATRICK VERTIGO V2 28 1:25:14 05:36 10.70
129 255 PARISIS MARIE-CHRISTINE ACLO/BJB A4 1 1:25:31 05:38 10.67
130 303 PIERARD THIBAULT JCPMF FONTAINE SE 31 1:25:41 05:38 10.64
131 480 DI PISA LORENZO JCPMF FONTAINE SE 32 1:25:41 05:38 10.64
132 3200 MACALUSO PIETRO - V4 6 1:25:58 05:39 10.61
133 3413 WAROUX PATRICK LAFORESTOISE V2 29 1:26:00 05:39 10.61
134 3284 CHIARAVALLE FRANCO - V2 30 1:26:08 05:40 10.59
135 3283 CHIARAVALLE JORDAN - SE 33 1:26:09 05:40 10.59
136 3402 LEPRINCE LAURENT - V1 30 1:26:13 05:40 10.58
137 45 PILETTE DANNY ACLO V2 31 1:26:14 05:40 10.58
138 156 VEKEMAN BERNADETTE AXA TEAM A5 1 1:26:14 05:40 10.58
139 469 PIERON ERIK LES TROTTINEURS DE S V2 32 1:26:15 05:40 10.57
140 94 RENARD ISABELLE ESM A1 8 1:26:17 05:41 10.57
141 489 DEMINNE THIERRY R.C.PEISSANT V2 33 1:26:24 05:41 10.56
142 611 DI GIUSEPPE ANGELO BOTTINES DES LACS V1 31 1:26:50 05:43 10.50
143 3266 WARGNIES FABRICE RUNFORFUNCHAPELLE SE 34 1:27:05 05:44 10.47
144 3299 FOUBERT LOUIS FUNETRUN V3 10 1:27:05 05:44 10.47
145 589 LEROY LUC ZONARDS LOB. V2 34 1:27:06 05:44 10.47
146 544 GUERIN VERONIQUE - A2 8 1:27:07 05:44 10.47
147 3208 EYLENBOSCH JEAN BVL V5 2 1:27:08 05:44 10.47
148 477 GORNIAK ALAIN - V4 7 1:27:09 05:44 10.47
149 3203 SEL MICHEL ACLO V6 1 1:27:40 05:46 10.40
150 3225 PICARO ROBERTO ZONARDS V2 35 1:28:05 05:48 10.35
151 805 RIGON DAVID ESM V1 32 1:28:15 05:48 10.33
152 3247 LEONI MURIEL ESM A2 9 1:28:50 05:51 10.27
153 86 BORREMANS BERNARD JCPMF FONTAINE V3 11 1:28:56 05:51 10.26
154 3207 SORDO RICHARD - V1 33 1:29:00 05:51 10.25
155 3206 BRUNET FREDERIC - V1 34 1:29:00 05:51 10.25
156 3217 BAUDUIN NATHALIE JCPMF SENEFFE A2 10 1:29:01 05:51 10.25
157 3214 JANS NICO - SE 35 1:29:01 05:51 10.25
158 17 CARON FABIENNE JC BRACQ/ACLO A2 11 1:29:03 05:51 10.24
159 130 ROMBAUX DIDIER FRT BINCHE V3 12 1:29:14 05:52 10.22
160 464 BOSCO MARCO FRT BINCHE V5 3 1:29:21 05:53 10.21
161 499 CASTAGNA MARIO ACG-ADDM V5 4 1:29:25 05:53 10.20
162 448 MESTRINER ALAIN PERONNES V1 35 1:29:32 05:53 10.19
163 3242 DUPAL GILLES BOTTINES DES LACS V2 36 1:29:40 05:54 10.17
164 256 RARY AIME LES ZONARDS V3 13 1:30:29 05:57 10.08
165 355 GUELTON DAMIEN CIAO ITALIA V1 36 1:30:35 05:58 10.07
166 3424 DRAILY ANTOINE - SE 36 1:30:36 05:58 10.07
167 3425 VANDEMAELE FLORENCE - DA 8 1:30:37 05:58 10.07
168 3262 QUERTINMONT QUENTIN - SE 37 1:30:40 05:58 10.06
169 450 SWENNEN GILBERT FOULEES DU PLAISIR V4 8 1:30:42 05:58 10.06
170 344 BOUDART DAVID EL BINDE À MICKEY V1 37 1:30:44 05:58 10.05
171 546 POCHET JOEL - V3 14 1:30:50 05:59 10.04
172 294 DRAGOTTA GAETANO BOTTINES DES LACS V1 38 1:30:55 05:59 10.03
173 173 MENTIA SANDRINE LES ZONARDS A2 12 1:31:12 06:00 10.00
174 396 DENIS CHRISTIAN ESM/LES ZONARDS V4 9 1:31:13 06:00 10.00
175 3403 ROMBAUX SABRINA BJB A2 13 1:32:30 06:05 9.86
176 466 SALERNI PHILIPPE ITM V2 37 1:32:57 06:07 9.81
177 806 PARFONRY ALEX - V3 15 1:33:00 06:07 9.81
178 642 KIN GEORGES R.C.B. V6 2 1:33:06 06:07 9.80
179 2 BARTHELEMI SANDRINE CIAO ITALIA A1 9 1:33:09 06:08 9.79
180 3271 INGLISA PIPPO BELLA NAPOLI V2 38 1:33:35 06:09 9.75
181 12 COYETTE FABIAN NAC V1 39 1:34:10 06:12 9.69
182 434 QUERTINMONT FRANK LES ZONARDS V2 39 1:34:19 06:12 9.67
183 432 URBAIN GINETTE SPIBO A5 2 1:34:31 06:13 9.65
184 110 JANUTH FRANCES G.GOBERT RUNNING TEA MA1 1 1:35:03 06:15 9.60
185 334 BIERSET VALERIE LES BOULETTES A2 14 1:35:12 06:16 9.58
186 300 AUCELLO ANNA-EMMANUEL ACLO A2 15 1:35:39 06:18 9.54
187 345 MASSART VICTOR LES BOUFFIOLS V4 10 1:36:25 06:21 9.46
188 44 MEURRENS YVON LES BOUFFIOLS V4 11 1:36:39 06:21 9.44
189 392 ARTONE BERNARDINO BJB V4 12 1:36:45 06:22 9.43
190 595 BOUILLON NATACHA J.T.BESONRIEUX A1 10 1:36:50 06:22 9.42
191 411 SERVAIS ISABELLE ACLO A1 11 1:37:23 06:24 9.37
192 3411 TOSCHIBA SCHIBATO BCJ RESSAIX V1 40 1:37:38 06:25 9.34
193 3298 GRAWET MARJORIE ZONARDS A1 12 1:37:49 06:26 9.32
194 444 VAN DAMME DANIEL LES ZONARDS V5 5 1:37:51 06:26 9.32
195 568 IANNI SALVATORE ACLO V3 16 1:38:28 06:29 9.26
196 3275 DELAUNOY ANTOINE INF SE 38 1:38:36 06:29 9.25
197 759 ROMBAUX QUENTIN - V1 41 1:38:44 06:30 9.24
198 755 BOGAERT ALINE - DA 9 1:39:05 06:31 9.20
199 329 DUFRANE MICHEL HAC V3 17 1:39:07 06:31 9.20
200 217 BESANGER RICHARD FRT BINCHE V5 6 1:40:22 06:36 9.09
201 3417 GLAUTIER FRANCOISE JC BAUDOUR A2 16 1:42:49 06:46 8.87
202 3435 FANUEL JEAN-PIERRE - V4 13 1:42:54 06:46 8.86
203 3282 VILLATTE VERONIQUE - A3 1 1:42:59 06:46 8.86
204 26 DELHAYE FABIENNE IRUN@WATERLOO A2 17 1:43:08 06:47 8.84
205 491 CROCI CARLO ULTRAMARATHON/RHODIE V6 3 1:43:11 06:47 8.84
206 467 DE LUYCK FEMKE - DA 10 1:43:44 06:49 8.79
207 25 VOKAR ETIENNE IRUN@WATERLOO V5 7 1:44:17 06:52 8.75
208 327 WILLOCQ DANIELLE HAC A4 2 1:45:36 06:57 8.64
209 398 THIRION FANFAN ESM/LES ZONARDS A4 3 1:45:36 06:57 8.64
210 3422 CARDELLA ANGELINA - A2 18 1:48:07 07:07 8.44
211 515 CAT CARINE ACLO A2 19 1:48:08 07:07 8.43
212 374 MELE ANGELO - V1 42 1:48:09 07:07 8.43
213 497 BILLOT PIERRE ESM / ZONARDS LOB. V2 40 1:49:05 07:11 8.36
214 406 LEGRAND PATRICIA TROTTIGNEUR DE SOIGN DA 11 1:51:19 07:19 8.19
215 638 BUYLE JEAN-LUC JC ESTINNES V2 41 1:52:30 07:24 8.11
216 338 DESCAMPS VERONIQUE JC BRACQ A2 20 1:55:50 07:37 7.87
217 413 MATTIOLI JEAN-MARIE JC BRACQ V3 18 2:01:28 07:59 7.51
218 144 DE WACHTER JEAN-FRANÇOIS IRUN@WATERLOO V2 42 2:18:07 09:05 6.60
219 514 BLIN CLAUDE IRUN@WATERLOO V6 4 2:18:08 09:05 6.60